createdAt,value
2023-06-11T00:07:44.414Z,1.40
2023-06-11T00:10:13.884Z,1.42
2023-06-11T00:15:25.668Z,1.13
2023-06-11T00:17:53.381Z,1.77
2023-06-11T00:31:31.227Z,1.30
2023-06-11T00:34:01.138Z,1.38
2023-06-11T00:36:29.902Z,1.42
2023-06-11T00:39:04.011Z,1.70
2023-06-11T00:41:33.248Z,1.63
2023-06-11T00:44:01.569Z,1.40
2023-06-11T00:46:29.163Z,1.45
2023-06-11T00:48:57.305Z,1.23
2023-06-11T00:51:32.377Z,1.60
2023-06-11T00:54:01.061Z,1.20
2023-06-11T00:56:34.939Z,1.40
2023-06-11T00:59:03.195Z,1.70
2023-06-11T01:01:33.031Z,1.42
2023-06-11T01:04:03.079Z,1.52
2023-06-11T01:06:35.079Z,1.38
2023-06-11T01:09:05.627Z,1.30
2023-06-11T01:11:38.043Z,1.13
2023-06-11T01:14:07.058Z,1.40
2023-06-11T01:16:46.623Z,1.50
2023-06-11T01:19:34.457Z,1.33
2023-06-11T01:22:10.307Z,1.55
2023-06-11T01:25:00.523Z,1.60
2023-06-11T01:28:09.153Z,1.92
2023-06-11T01:30:39.293Z,1.60
2023-06-11T01:33:09.638Z,1.77
2023-06-11T01:35:50.022Z,1.58
2023-06-11T01:38:23.091Z,1.60
2023-06-11T01:40:56.101Z,1.50
2023-06-11T01:43:24.601Z,1.70
2023-06-11T01:45:53.281Z,1.73
2023-06-11T01:48:25.860Z,1.40
2023-06-11T01:50:53.398Z,1.92
2023-06-11T01:53:21.138Z,1.90
2023-06-11T01:55:49.040Z,1.88
2023-06-11T01:58:19.910Z,1.42
2023-06-11T02:00:48.880Z,1.48
2023-06-11T02:03:17.242Z,1.55
2023-06-11T02:05:45.261Z,1.50
2023-06-11T02:08:13.068Z,1.65
2023-06-11T02:10:45.484Z,1.58
2023-06-11T02:13:18.025Z,1.63
2023-06-11T02:15:45.288Z,1.50
2023-06-11T02:18:13.146Z,1.20
2023-06-11T02:20:41.227Z,1.50
2023-06-11T02:23:14.300Z,1.40
2023-06-11T02:25:40.983Z,1.67
2023-06-11T02:28:09.261Z,1.48
2023-06-11T02:30:37.025Z,1.30
2023-06-11T02:33:07.141Z,1.40
2023-06-11T02:35:37.018Z,1.35
2023-06-11T02:38:29.254Z,1.50
2023-06-11T02:40:57.320Z,1.45
2023-06-11T02:43:25.552Z,1.75
2023-06-11T02:45:53.266Z,1.48
2023-06-11T02:48:21.061Z,1.63
2023-06-11T02:50:49.276Z,1.50
2023-06-11T02:53:17.182Z,1.55
2023-06-11T02:55:44.999Z,1.50
2023-06-11T02:58:13.156Z,1.40
2023-06-11T03:00:41.219Z,1.35
2023-06-11T03:03:09.309Z,1.42
2023-06-11T03:05:41.886Z,1.52
2023-06-11T03:08:09.280Z,1.40
2023-06-11T03:10:38.884Z,1.80
2023-06-11T03:13:11.265Z,1.40
2023-06-11T03:15:39.077Z,1.58
2023-06-11T03:18:07.087Z,1.48
2023-06-11T03:20:42.022Z,1.67
2023-06-11T03:23:12.151Z,1.70
2023-06-11T03:25:46.723Z,1.95
2023-06-11T03:28:20.012Z,1.50
2023-06-11T03:30:47.211Z,1.75
2023-06-11T03:33:15.090Z,1.63
2023-06-11T03:35:48.439Z,1.50
2023-06-11T03:38:23.087Z,1.70
2023-06-11T03:40:51.051Z,2.00
2023-06-11T03:43:19.191Z,1.30
2023-06-11T03:45:49.020Z,1.75
2023-06-11T03:48:17.021Z,1.70
2023-06-11T03:50:45.292Z,2.03
2023-06-11T03:53:13.285Z,1.55
2023-06-11T03:55:41.095Z,1.60
2023-06-11T03:58:09.240Z,1.70
2023-06-11T04:00:37.170Z,1.60
2023-06-11T04:03:05.348Z,1.60
2023-06-11T04:05:39.349Z,1.90
2023-06-11T04:08:09.352Z,1.50
2023-06-11T04:10:42.294Z,1.60
2023-06-11T04:13:11.254Z,1.80
2023-06-11T04:15:39.057Z,2.08
2023-06-11T04:18:12.205Z,1.67
2023-06-11T04:20:45.087Z,1.70
2023-06-11T04:23:13.009Z,1.52
2023-06-11T04:28:38.225Z,1.70
2023-06-11T04:31:05.503Z,1.98
2023-06-11T04:33:37.618Z,1.77
2023-06-11T04:36:08.952Z,2.20
2023-06-11T04:38:38.426Z,1.58
2023-06-11T04:41:07.863Z,2.20
2023-06-11T04:43:37.916Z,1.75
2023-06-11T04:46:07.794Z,1.65
2023-06-11T04:48:39.097Z,1.90
2023-06-11T04:51:07.336Z,1.73
2023-06-11T04:53:39.416Z,1.70
2023-06-11T04:56:14.427Z,2.00
2023-06-11T04:58:43.251Z,1.90
2023-06-11T05:01:13.391Z,1.70
2023-06-11T05:03:41.162Z,1.80
2023-06-11T05:06:14.599Z,2.15
2023-06-11T05:08:47.137Z,2.08
2023-06-11T05:11:15.008Z,1.70
2023-06-11T05:13:43.239Z,2.30
2023-06-11T05:16:11.060Z,1.70
2023-06-11T05:18:44.318Z,1.88
2023-06-11T05:21:12.525Z,1.73
2023-06-11T05:23:45.180Z,1.90
2023-06-11T05:26:15.141Z,2.13
2023-06-11T05:28:52.409Z,1.73
2023-06-11T05:31:22.631Z,1.60
2023-06-11T05:33:51.197Z,2.05
2023-06-11T05:36:19.027Z,2.30
2023-06-11T05:38:47.897Z,2.00
2023-06-11T05:41:15.341Z,2.00
2023-06-11T05:43:43.122Z,2.75
2023-06-11T05:46:11.023Z,1.85
2023-06-11T05:51:31.063Z,2.25
2023-06-11T05:54:07.801Z,2.00
2023-06-11T05:56:37.122Z,2.00
2023-06-11T05:59:05.444Z,2.25
2023-06-11T06:01:34.344Z,2.45
2023-06-11T06:04:03.253Z,2.08
2023-06-11T06:06:32.235Z,2.15
2023-06-11T06:09:05.216Z,2.85
2023-06-11T06:11:32.992Z,2.13
2023-06-11T06:14:01.120Z,1.92
2023-06-11T06:16:29.536Z,2.50
2023-06-11T06:19:06.153Z,1.90
2023-06-11T06:21:33.537Z,1.98
2023-06-11T06:27:02.659Z,1.90
2023-06-11T06:29:34.145Z,2.00
2023-06-11T06:32:03.308Z,1.90
2023-06-11T06:34:31.040Z,2.30
2023-06-11T06:36:59.056Z,1.75
2023-06-11T06:39:27.371Z,1.90
2023-06-11T06:41:55.050Z,1.70
2023-06-11T06:44:33.009Z,2.00
2023-06-11T06:47:01.063Z,2.20
2023-06-11T06:49:29.061Z,2.60
2023-06-11T06:52:02.092Z,2.03
2023-06-11T06:54:38.384Z,2.30
2023-06-11T06:57:12.374Z,1.90
2023-06-11T06:59:41.222Z,1.83
2023-06-11T07:02:12.925Z,2.10
2023-06-11T07:04:50.471Z,2.13
2023-06-11T07:07:19.140Z,1.80
2023-06-11T07:15:27.027Z,1.75
2023-06-11T07:17:55.847Z,2.10
2023-06-11T07:20:54.444Z,2.13
2023-06-11T07:23:28.177Z,1.98
2023-06-11T07:26:01.690Z,1.70
2023-06-11T07:28:31.197Z,2.10
2023-06-11T07:30:59.316Z,1.95
2023-06-11T07:33:27.310Z,1.90
2023-06-11T07:35:57.375Z,2.13
2023-06-11T07:38:30.091Z,2.20
2023-06-11T07:40:57.812Z,2.28
2023-06-11T07:43:33.705Z,2.40
2023-06-11T07:46:10.800Z,2.05
2023-06-11T07:48:43.527Z,2.22
2023-06-11T07:51:24.783Z,1.70
2023-06-11T07:57:07.904Z,2.17
2023-06-11T07:59:39.295Z,1.95
2023-06-11T08:02:07.859Z,1.92
2023-06-11T08:09:12.334Z,2.45
2023-06-11T08:11:42.638Z,1.88
2023-06-11T08:14:11.037Z,2.20
2023-06-11T08:16:39.069Z,2.05
2023-06-11T08:19:06.974Z,2.15
2023-06-11T08:21:35.132Z,2.33
2023-06-11T08:24:45.888Z,2.45
2023-06-11T08:27:18.465Z,2.05
2023-06-11T08:29:46.972Z,2.20
2023-06-11T08:32:15.171Z,2.22
2023-06-11T08:34:43.007Z,2.25
2023-06-11T08:37:11.400Z,2.20
2023-06-11T08:40:03.110Z,2.25
2023-06-11T08:42:31.045Z,2.03
2023-06-11T08:48:37.325Z,2.00
2023-06-11T08:54:02.800Z,2.38
2023-06-11T09:09:36.951Z,1.90
2023-06-11T09:12:10.225Z,2.70
2023-06-11T09:14:39.266Z,2.10
2023-06-11T09:17:07.981Z,2.17
2023-06-11T09:19:46.223Z,2.20
2023-06-11T09:22:20.468Z,2.28
2023-06-11T09:24:51.659Z,2.13
2023-06-11T09:27:22.674Z,2.30
2023-06-11T09:29:55.877Z,2.40
2023-06-11T09:38:31.019Z,2.17
2023-06-11T09:41:02.699Z,2.08
2023-06-11T09:43:32.445Z,2.40
2023-06-11T09:46:03.459Z,2.30
2023-06-11T09:48:31.555Z,1.95
2023-06-11T09:51:02.175Z,2.00
2023-06-11T10:26:41.324Z,2.15
2023-06-11T10:29:47.473Z,2.10
2023-06-11T10:40:09.483Z,2.20
2023-06-11T10:56:00.557Z,2.20
2023-06-11T10:59:01.667Z,2.00
2023-06-11T11:05:55.019Z,2.20
2023-06-11T12:39:09.586Z,2.08
2023-06-11T12:41:37.800Z,2.42
2023-06-11T12:44:11.727Z,2.35
2023-06-11T12:46:39.418Z,2.10
2023-06-11T12:49:07.093Z,2.10
2023-06-11T12:51:36.270Z,2.03
2023-06-11T12:54:03.461Z,2.00
2023-06-11T12:56:36.336Z,2.17
2023-06-11T12:59:08.562Z,2.13
2023-06-11T13:07:04.838Z,2.10
2023-06-11T13:17:45.174Z,1.85
2023-06-11T13:20:13.861Z,2.28
2023-06-11T13:22:43.159Z,1.90
2023-06-11T13:25:11.281Z,2.00
2023-06-11T13:27:39.280Z,2.17
2023-06-11T13:30:11.383Z,2.30
2023-06-11T13:35:43.038Z,1.80
2023-06-11T13:41:29.678Z,2.33
2023-06-11T13:43:57.074Z,1.60
2023-06-11T13:46:30.895Z,2.30
2023-06-11T14:14:42.765Z,1.85
2023-06-11T14:28:20.455Z,2.20
2023-06-11T14:30:51.045Z,1.98
2023-06-11T14:33:20.426Z,1.80
2023-06-11T14:35:51.821Z,1.80
2023-06-11T14:38:19.353Z,1.83
2023-06-11T14:40:47.563Z,2.30
2023-06-11T14:43:15.657Z,1.65
2023-06-11T14:45:51.005Z,1.65
2023-06-11T14:48:45.068Z,1.60
2023-06-11T14:51:19.154Z,1.88
2023-06-11T14:53:47.904Z,1.65
2023-06-11T14:56:16.026Z,1.65
2023-06-11T14:58:43.063Z,1.70
2023-06-11T15:04:05.855Z,1.95
2023-06-11T15:06:38.107Z,1.95
2023-06-11T15:09:05.463Z,1.50
2023-06-11T15:11:33.089Z,1.73
2023-06-11T15:14:01.043Z,1.75
2023-06-11T15:16:29.355Z,1.83
2023-06-11T15:18:57.803Z,2.03
2023-06-11T15:21:25.108Z,1.90
2023-06-11T15:24:12.923Z,1.80
2023-06-11T15:26:45.736Z,2.00
2023-06-11T15:29:13.291Z,1.77
2023-06-11T15:31:42.544Z,1.70
2023-06-11T15:34:11.740Z,1.90
2023-06-11T15:37:04.793Z,1.90
2023-06-11T15:39:33.035Z,1.92
2023-06-11T15:42:02.060Z,1.60
2023-06-11T15:44:40.280Z,2.22
2023-06-11T15:47:13.534Z,2.08
2023-06-11T15:49:47.169Z,2.08
2023-06-11T15:52:15.442Z,2.53
2023-06-11T15:54:43.326Z,2.38
2023-06-11T15:57:42.077Z,1.98
2023-06-11T16:00:10.528Z,1.88
2023-06-11T16:02:43.642Z,1.80
2023-06-11T16:05:20.613Z,1.83
2023-06-11T16:07:54.136Z,1.70
2023-06-11T16:10:21.294Z,1.65
2023-06-11T16:12:49.476Z,1.80
2023-06-11T16:15:16.970Z,1.80
2023-06-11T16:17:47.873Z,2.10
2023-06-11T16:20:15.397Z,2.42
2023-06-11T16:22:44.018Z,1.90
2023-06-11T16:28:03.273Z,2.40
2023-06-11T16:30:35.464Z,1.90
2023-06-11T16:33:03.182Z,2.28
2023-06-11T16:35:31.994Z,2.17
2023-06-11T16:38:06.104Z,2.03
2023-06-11T16:40:33.409Z,2.45
2023-06-11T16:43:01.168Z,2.25
2023-06-11T16:45:31.356Z,2.60
2023-06-11T16:48:04.874Z,2.10
2023-06-11T16:50:33.010Z,1.77
2023-06-11T16:53:01.020Z,1.73
2023-06-11T16:55:32.995Z,1.55
2023-06-11T17:00:57.077Z,2.13
2023-06-11T17:03:30.428Z,2.47
2023-06-11T17:05:58.974Z,1.80
2023-06-11T17:08:27.117Z,2.10
2023-06-11T17:11:00.220Z,2.13
2023-06-11T17:13:58.078Z,1.85
2023-06-11T17:16:25.115Z,2.05
2023-06-11T17:19:03.591Z,1.85
2023-06-11T17:21:35.963Z,2.05
2023-06-11T17:24:07.181Z,1.83
2023-06-11T17:26:42.827Z,2.00
2023-06-11T17:29:11.244Z,1.95
2023-06-11T17:31:39.096Z,2.22
2023-06-11T17:34:07.003Z,1.90
2023-06-11T17:36:35.107Z,1.88
2023-06-11T17:39:03.042Z,2.08
2023-06-11T17:41:31.269Z,1.75
2023-06-11T17:44:04.103Z,1.92
2023-06-11T17:46:31.036Z,2.05
2023-06-11T17:48:59.062Z,2.30
2023-06-11T17:51:53.445Z,2.10
2023-06-11T17:54:21.049Z,2.00
2023-06-11T17:56:49.182Z,2.65
2023-06-11T17:59:17.292Z,1.90
2023-06-11T18:01:45.446Z,1.70
2023-06-11T18:04:13.140Z,1.80
2023-06-11T18:06:46.009Z,2.22
2023-06-11T18:09:13.716Z,1.73
2023-06-11T18:11:42.373Z,2.17
2023-06-11T18:14:11.041Z,1.80
2023-06-11T18:16:39.760Z,2.30
2023-06-11T18:19:07.101Z,1.60
2023-06-11T18:21:34.968Z,2.00
2023-06-11T18:24:03.172Z,1.90
2023-06-11T18:26:31.141Z,2.40
2023-06-11T18:28:59.129Z,2.83
2023-06-11T18:31:27.122Z,1.73
2023-06-11T18:33:55.286Z,2.50
2023-06-11T18:36:23.237Z,2.40
2023-06-11T18:38:51.051Z,2.33
2023-06-11T18:41:21.116Z,1.95
2023-06-11T18:43:49.121Z,2.13
2023-06-11T18:46:17.181Z,2.10
2023-06-11T18:48:49.482Z,2.28
2023-06-11T18:51:17.520Z,2.30
2023-06-11T18:53:45.049Z,2.10
2023-06-11T18:56:13.407Z,2.20
2023-06-11T18:58:41.297Z,1.92
2023-06-11T19:01:13.772Z,1.88
2023-06-11T19:06:33.034Z,2.05
2023-06-11T19:09:04.983Z,1.77
2023-06-11T19:11:32.977Z,2.25
2023-06-11T19:14:01.071Z,1.90
2023-06-11T19:24:10.732Z,2.17
2023-06-11T19:57:26.103Z,2.10
2023-06-11T20:35:38.133Z,2.30
2023-06-11T21:21:08.724Z,2.10
2023-06-11T21:26:39.581Z,2.38
2023-06-11T21:31:58.325Z,2.50
2023-06-11T21:34:30.385Z,2.25
2023-06-11T21:36:58.989Z,2.10
2023-06-11T21:39:27.344Z,2.45
2023-06-11T21:41:55.202Z,2.28
2023-06-11T21:44:32.505Z,2.60
2023-06-11T21:47:06.618Z,2.33
2023-06-11T21:49:40.021Z,2.30
2023-06-11T21:52:17.645Z,3.25
2023-06-11T21:54:45.710Z,2.60
2023-06-11T21:57:19.153Z,2.33
2023-06-11T21:59:52.048Z,2.97
2023-06-11T22:02:19.062Z,2.50
2023-06-11T22:07:45.486Z,2.28
2023-06-11T22:10:24.075Z,2.10
2023-06-11T22:12:51.028Z,2.60
2023-06-11T22:15:44.570Z,2.47
2023-06-11T22:18:13.816Z,2.28
2023-06-11T22:20:48.070Z,2.63
2023-06-11T22:23:15.895Z,2.35
2023-06-11T22:25:48.085Z,2.40
2023-06-11T22:28:15.042Z,2.17
2023-06-11T22:30:56.410Z,2.70
2023-06-11T22:33:24.989Z,2.50
2023-06-11T22:35:53.008Z,3.38
2023-06-11T22:38:21.091Z,2.33
2023-06-11T22:40:54.009Z,2.70
2023-06-11T22:43:20.966Z,2.30
2023-06-11T22:45:54.096Z,2.45
2023-06-11T22:48:21.084Z,2.30
2023-06-11T22:51:20.711Z,3.05
2023-06-11T22:53:49.301Z,2.97
2023-06-11T22:56:17.271Z,2.40
2023-06-11T22:58:49.155Z,2.03
2023-06-11T23:01:17.597Z,2.58
2023-06-11T23:03:45.157Z,2.40
2023-06-11T23:06:46.339Z,2.78
2023-06-11T23:09:14.148Z,2.30
2023-06-11T23:11:48.049Z,2.45
2023-06-11T23:14:15.953Z,2.80
2023-06-11T23:17:15.364Z,2.70
2023-06-11T23:19:47.026Z,2.45
2023-06-11T23:22:19.329Z,2.35
2023-06-11T23:24:49.241Z,2.63
2023-06-11T23:30:19.043Z,2.47
2023-06-11T23:32:48.343Z,2.40
2023-06-11T23:35:19.498Z,2.20
2023-06-11T23:37:51.440Z,2.22
2023-06-11T23:40:19.891Z,2.40
2023-06-11T23:42:52.090Z,2.30
2023-06-11T23:45:19.017Z,2.80
2023-06-11T23:47:46.987Z,2.35
2023-06-11T23:50:19.092Z,2.28
2023-06-11T23:53:11.419Z,2.40
2023-06-11T23:55:45.028Z,2.40
2023-06-11T23:58:20.965Z,2.45
